createdAt,value
2022-12-20T00:04:39.728Z,53.00
2022-12-20T00:10:03.435Z,45.58
2022-12-20T00:15:29.667Z,43.60
2022-12-20T00:20:59.526Z,61.50
2022-12-20T00:26:25.897Z,51.65
2022-12-20T00:31:51.169Z,41.97
2022-12-20T00:37:15.501Z,47.00
2022-12-20T00:42:39.241Z,52.25
2022-12-20T00:48:04.595Z,46.40
2022-12-20T00:53:29.058Z,46.63
2022-12-20T00:58:53.466Z,40.85
2022-12-20T01:04:18.535Z,47.58
2022-12-20T01:09:42.467Z,46.03
2022-12-20T01:15:07.227Z,43.80
2022-12-20T01:20:35.018Z,47.00
2022-12-20T01:26:00.598Z,38.42
2022-12-20T01:31:25.119Z,43.63
2022-12-20T01:36:51.103Z,50.40
2022-12-20T01:42:16.164Z,43.45
2022-12-20T01:47:43.316Z,51.55
2022-12-20T01:53:10.529Z,50.03
2022-12-20T01:58:37.955Z,41.55
2022-12-20T02:04:01.693Z,43.40
2022-12-20T02:09:27.350Z,49.30
2022-12-20T02:15:05.235Z,43.22
2022-12-20T02:20:56.603Z,44.15
2022-12-20T02:26:58.318Z,51.97
2022-12-20T02:32:27.458Z,39.40
2022-12-20T02:37:53.076Z,40.33
2022-12-20T02:43:31.626Z,49.75
2022-12-20T02:49:01.996Z,41.47
2022-12-20T02:54:26.685Z,46.90
2022-12-20T02:59:58.377Z,50.47
2022-12-20T03:05:27.780Z,45.92
2022-12-20T03:10:53.453Z,48.35
2022-12-20T03:16:17.164Z,39.92
2022-12-20T03:21:42.753Z,45.60
2022-12-20T03:27:06.593Z,46.65
2022-12-20T03:32:30.275Z,44.42
2022-12-20T03:37:56.389Z,52.33
2022-12-20T03:43:21.750Z,43.55
2022-12-20T03:48:45.489Z,42.33
2022-12-20T03:54:11.249Z,35.70
2022-12-20T03:59:52.173Z,31.52
2022-12-20T04:05:17.542Z,43.85
2022-12-20T04:10:56.656Z,39.70
2022-12-20T04:16:24.895Z,40.92
2022-12-20T04:22:04.730Z,43.40
2022-12-20T04:27:43.461Z,41.28
2022-12-20T04:33:07.443Z,43.33
2022-12-20T04:38:31.247Z,40.60
2022-12-20T04:43:58.491Z,42.38
2022-12-20T04:49:30.548Z,35.45
2022-12-20T04:54:54.337Z,43.60
2022-12-20T05:00:24.600Z,43.25
2022-12-20T05:05:56.233Z,36.83
2022-12-20T05:11:20.238Z,37.97
2022-12-20T05:16:45.700Z,36.67
2022-12-20T05:22:28.619Z,40.97
2022-12-20T05:28:18.632Z,38.60
2022-12-20T05:33:43.696Z,37.97
2022-12-20T05:39:08.233Z,41.38
2022-12-20T05:44:35.542Z,43.65
2022-12-20T05:50:01.732Z,33.60
2022-12-20T05:55:30.748Z,44.00
2022-12-20T06:00:56.168Z,38.00
2022-12-20T06:06:23.006Z,32.80
2022-12-20T06:11:48.089Z,27.20
2022-12-20T06:17:12.912Z,40.25
2022-12-20T06:22:38.843Z,29.48
2022-12-20T06:28:02.699Z,41.05
2022-12-20T06:33:27.478Z,33.15
2022-12-20T06:38:53.779Z,40.03
2022-12-20T06:44:18.059Z,38.75
2022-12-20T06:49:42.013Z,31.75
2022-12-20T07:00:39.650Z,30.75
2022-12-20T07:06:03.335Z,33.17
2022-12-20T07:11:28.326Z,35.70
2022-12-20T07:16:52.084Z,32.60
2022-12-20T07:22:15.724Z,23.42
2022-12-20T07:27:40.751Z,31.60
2022-12-20T07:33:04.416Z,34.55
2022-12-20T07:38:28.833Z,35.97
2022-12-20T07:43:54.231Z,38.35
2022-12-20T07:49:18.046Z,27.85
2022-12-20T07:54:47.049Z,29.40
2022-12-20T08:00:13.349Z,31.30
2022-12-20T08:05:42.533Z,20.98
2022-12-20T08:11:09.945Z,22.17
2022-12-20T08:16:35.061Z,31.52
2022-12-20T08:21:58.873Z,29.88
2022-12-20T08:27:22.594Z,22.30
2022-12-20T08:32:47.705Z,24.25
2022-12-20T08:38:11.349Z,29.50
2022-12-20T08:43:35.913Z,39.70
2022-12-20T08:49:00.959Z,33.80
2022-12-20T08:54:24.659Z,33.13
2022-12-20T08:59:48.389Z,34.00
2022-12-20T09:05:13.442Z,32.40
2022-12-20T09:10:37.249Z,27.70
2022-12-20T09:16:02.233Z,30.13
2022-12-20T09:21:27.450Z,32.83
2022-12-20T09:26:52.015Z,27.33
2022-12-20T09:32:16.125Z,24.08
2022-12-20T09:37:41.532Z,25.50
2022-12-20T09:43:05.922Z,32.97
2022-12-20T09:48:32.849Z,24.42
2022-12-20T09:54:16.548Z,25.45
2022-12-20T09:59:49.076Z,27.83
2022-12-20T10:05:17.300Z,29.20
2022-12-20T10:10:57.596Z,27.65
2022-12-20T10:16:37.213Z,30.00
2022-12-20T10:22:08.340Z,28.52
2022-12-20T10:27:37.972Z,25.70
2022-12-20T10:33:02.445Z,21.40
2022-12-20T10:38:26.837Z,26.52
2022-12-20T10:43:57.925Z,33.90
2022-12-20T10:49:28.443Z,26.20
2022-12-20T10:54:52.204Z,25.13
2022-12-20T11:00:29.672Z,25.02
2022-12-20T11:05:58.998Z,31.23
2022-12-20T11:11:25.205Z,31.65
2022-12-20T11:16:53.192Z,23.17
2022-12-20T11:22:32.391Z,26.85
2022-12-20T11:28:10.250Z,24.38
2022-12-20T11:33:48.014Z,28.02
2022-12-20T11:39:20.673Z,27.40
2022-12-20T11:45:06.714Z,24.58
2022-12-20T11:50:49.545Z,26.42
2022-12-20T11:56:18.777Z,23.90
2022-12-20T12:01:48.579Z,26.05
2022-12-20T12:07:18.882Z,27.50
2022-12-20T12:12:46.048Z,23.17
2022-12-20T12:18:18.179Z,24.73
2022-12-20T12:23:53.067Z,26.77
2022-12-20T12:29:19.452Z,26.92
2022-12-20T12:34:57.286Z,26.42
2022-12-20T12:40:52.309Z,23.95
2022-12-20T12:46:20.607Z,23.52
2022-12-20T12:51:51.902Z,28.38
2022-12-20T12:57:18.835Z,26.07
2022-12-20T13:02:53.475Z,28.10
2022-12-20T13:08:18.958Z,23.60
2022-12-20T13:13:44.156Z,22.15
2022-12-20T13:19:15.313Z,30.65
2022-12-20T13:24:55.081Z,28.67
2022-12-20T13:30:28.470Z,25.48
2022-12-20T13:36:00.586Z,25.55
2022-12-20T13:47:07.526Z,23.95
2022-12-20T13:52:33.340Z,25.88
2022-12-20T13:57:57.284Z,30.98
2022-12-20T14:03:25.042Z,24.90
2022-12-20T14:08:50.715Z,33.08
2022-12-20T14:14:15.938Z,25.98
2022-12-20T14:19:41.072Z,22.80
2022-12-20T14:25:10.023Z,28.65
2022-12-20T14:30:37.752Z,35.03
2022-12-20T14:36:19.248Z,79.10
2022-12-20T14:41:45.729Z,122.03
2022-12-20T14:47:17.527Z,83.50
2022-12-20T14:52:43.636Z,88.28
2022-12-20T14:58:25.280Z,67.18
2022-12-20T15:03:53.784Z,108.33
2022-12-20T15:09:19.365Z,68.15
2022-12-20T15:14:44.092Z,76.70
2022-12-20T15:20:13.739Z,52.30
2022-12-20T15:25:43.142Z,37.70
2022-12-20T15:31:11.006Z,67.55
2022-12-20T15:36:34.985Z,61.15
2022-12-20T15:42:06.752Z,30.00
2022-12-20T15:47:30.581Z,36.00
2022-12-20T15:52:54.508Z,39.10
2022-12-20T15:58:19.707Z,45.00
2022-12-20T16:03:43.877Z,34.22
2022-12-20T16:09:07.661Z,37.28
2022-12-20T16:14:32.864Z,39.45
2022-12-20T16:19:56.728Z,33.40
2022-12-20T16:25:27.310Z,39.60
2022-12-20T16:30:53.537Z,40.47
2022-12-20T16:36:17.895Z,41.53
2022-12-20T16:41:44.370Z,28.38
2022-12-20T16:47:12.804Z,40.42
2022-12-20T16:52:37.708Z,29.25
2022-12-20T16:58:01.505Z,34.22
2022-12-20T17:03:26.959Z,36.13
2022-12-20T17:14:32.466Z,46.20
2022-12-20T17:19:57.619Z,41.72
2022-12-20T17:25:25.458Z,42.33
2022-12-20T17:30:50.681Z,38.05
2022-12-20T17:36:15.965Z,37.72
2022-12-20T17:41:39.849Z,36.45
2022-12-20T17:47:03.951Z,43.53
2022-12-20T17:52:29.691Z,37.85
2022-12-20T17:57:55.347Z,40.33
2022-12-20T18:03:53.494Z,41.60
2022-12-20T18:09:05.290Z,36.47
2022-12-20T18:14:29.310Z,43.03
2022-12-20T18:19:55.778Z,41.50
2022-12-20T18:25:20.980Z,37.05
2022-12-20T18:30:44.968Z,47.28
2022-12-20T18:36:11.449Z,46.55
2022-12-20T18:41:37.872Z,48.95
2022-12-20T18:47:02.352Z,48.42
2022-12-20T18:52:26.194Z,40.42
2022-12-20T18:57:51.513Z,39.25
2022-12-20T19:03:15.427Z,40.80
2022-12-20T19:08:39.750Z,55.53
2022-12-20T19:14:05.163Z,44.38
2022-12-20T19:19:29.067Z,42.53
2022-12-20T19:24:53.622Z,47.67
2022-12-20T19:30:19.245Z,48.50
2022-12-20T19:35:55.491Z,46.78
2022-12-20T19:41:20.816Z,46.30
2022-12-20T19:46:46.603Z,39.75
2022-12-20T19:52:10.577Z,44.70
2022-12-20T19:57:35.125Z,47.20
2022-12-20T20:03:01.858Z,41.80
2022-12-20T20:08:26.077Z,47.20
2022-12-20T20:13:49.975Z,41.10
2022-12-20T20:19:15.558Z,49.25
2022-12-20T20:24:43.038Z,45.33
2022-12-20T20:30:11.168Z,47.55
2022-12-20T20:35:36.582Z,44.40
2022-12-20T20:41:03.681Z,40.47
2022-12-20T20:46:28.337Z,41.17
2022-12-20T20:51:53.538Z,41.53
2022-12-20T20:57:17.324Z,42.85
2022-12-20T21:02:41.317Z,47.70
2022-12-20T21:08:07.035Z,45.03
2022-12-20T21:13:30.817Z,49.40
2022-12-20T21:18:55.752Z,44.67
2022-12-20T21:24:22.278Z,51.72
2022-12-20T21:29:46.089Z,46.00
2022-12-20T21:35:10.823Z,36.50
2022-12-20T21:40:36.023Z,39.10
2022-12-20T21:45:59.961Z,35.90
2022-12-20T21:51:25.242Z,39.95
2022-12-20T21:56:50.680Z,40.35
2022-12-20T22:02:14.485Z,41.58
2022-12-20T22:07:38.313Z,42.20
2022-12-20T22:13:03.395Z,40.40
2022-12-20T22:18:27.196Z,40.33
2022-12-20T22:23:51.571Z,46.90
2022-12-20T22:29:16.938Z,38.55
2022-12-20T22:34:40.749Z,47.30
2022-12-20T22:40:05.132Z,39.38
2022-12-20T22:45:30.361Z,40.70
2022-12-20T22:50:59.576Z,40.00
2022-12-20T22:56:23.305Z,38.13
2022-12-20T23:01:48.674Z,36.33
2022-12-20T23:07:12.640Z,36.10
2022-12-20T23:12:54.436Z,42.25
2022-12-20T23:18:19.542Z,41.80
2022-12-20T23:23:43.281Z,41.20
2022-12-20T23:29:08.725Z,40.65
2022-12-20T23:34:33.857Z,39.17
2022-12-20T23:39:57.619Z,38.03
2022-12-20T23:45:21.395Z,37.00
2022-12-20T23:50:46.536Z,33.88
2022-12-20T23:56:12.739Z,33.05
